sensor_id;sensor_type;location;lat;lon;timestamp;pressure;altitude;pressure_sealevel;temperature;humidity
17209;BME280;8720;48.488;9.202;2022-10-23T00:00:42;97124.91;;;16.73;57.89
17209;BME280;8720;48.488;9.202;2022-10-23T00:03:10;97120.88;;;16.64;58.09
17209;BME280;8720;48.488;9.202;2022-10-23T00:05:39;97128.16;;;16.59;58.00
17209;BME280;8720;48.488;9.202;2022-10-23T00:08:07;97117.97;;;16.52;58.07
17209;BME280;8720;48.488;9.202;2022-10-23T00:10:34;97112.06;;;16.45;58.12
17209;BME280;8720;48.488;9.202;2022-10-23T00:13:03;97104.38;;;16.41;58.72
17209;BME280;8720;48.488;9.202;2022-10-23T00:15:30;97092.34;;;16.33;58.77
17209;BME280;8720;48.488;9.202;2022-10-23T00:17:57;97090.56;;;16.34;58.90
17209;BME280;8720;48.488;9.202;2022-10-23T00:20:25;97093.00;;;16.38;58.95
17209;BME280;8720;48.488;9.202;2022-10-23T00:22:52;97094.78;;;16.38;59.00
17209;BME280;8720;48.488;9.202;2022-10-23T00:25:19;97092.16;;;16.38;58.82
17209;BME280;8720;48.488;9.202;2022-10-23T00:27:46;97085.22;;;16.35;59.25
17209;BME280;8720;48.488;9.202;2022-10-23T00:30:15;97083.44;;;16.36;59.12
17209;BME280;8720;48.488;9.202;2022-10-23T00:32:42;97091.28;;;16.37;59.19
17209;BME280;8720;48.488;9.202;2022-10-23T00:35:09;97088.28;;;16.45;59.99
17209;BME280;8720;48.488;9.202;2022-10-23T00:37:37;97090.75;;;16.50;59.99
17209;BME280;8720;48.488;9.202;2022-10-23T00:40:06;97079.75;;;16.59;59.76
17209;BME280;8720;48.488;9.202;2022-10-23T00:42:33;97093.81;;;16.78;60.05
17209;BME280;8720;48.488;9.202;2022-10-23T00:45:20;97076.88;;;16.82;59.79
17209;BME280;8720;48.488;9.202;2022-10-23T00:47:48;97080.72;;;16.93;59.68
17209;BME280;8720;48.488;9.202;2022-10-23T00:50:17;97056.03;;;16.76;59.22
17209;BME280;8720;48.488;9.202;2022-10-23T00:52:48;97078.97;;;16.94;59.19
17209;BME280;8720;48.488;9.202;2022-10-23T00:55:19;97086.72;;;16.97;58.99
17209;BME280;8720;48.488;9.202;2022-10-23T00:57:49;97081.19;;;16.84;58.88
17209;BME280;8720;48.488;9.202;2022-10-23T01:00:22;97087.09;;;16.89;59.07
17209;BME280;8720;48.488;9.202;2022-10-23T01:02:51;97071.91;;;16.76;58.73
17209;BME280;8720;48.488;9.202;2022-10-23T01:05:26;97078.84;;;16.78;58.70
17209;BME280;8720;48.488;9.202;2022-10-23T01:08:01;97078.34;;;16.70;58.71
17209;BME280;8720;48.488;9.202;2022-10-23T01:10:38;97082.78;;;16.70;58.76
17209;BME280;8720;48.488;9.202;2022-10-23T01:13:14;97071.06;;;16.57;58.60
17209;BME280;8720;48.488;9.202;2022-10-23T01:15:52;97067.34;;;16.61;58.70
17209;BME280;8720;48.488;9.202;2022-10-23T01:18:31;97068.66;;;16.52;58.92
17209;BME280;8720;48.488;9.202;2022-10-23T01:21:08;97075.00;;;16.48;58.95
17209;BME280;8720;48.488;9.202;2022-10-23T01:24:11;97057.03;;;16.36;58.85
17209;BME280;8720;48.488;9.202;2022-10-23T01:26:59;97069.25;;;16.38;59.33
17209;BME280;8720;48.488;9.202;2022-10-23T01:29:39;97055.47;;;16.32;59.29
17209;BME280;8720;48.488;9.202;2022-10-23T01:32:12;97060.53;;;16.36;59.20
17209;BME280;8720;48.488;9.202;2022-10-23T01:34:48;97057.97;;;16.35;59.52
17209;BME280;8720;48.488;9.202;2022-10-23T01:37:27;97058.31;;;16.27;59.48
17209;BME280;8720;48.488;9.202;2022-10-23T01:40:02;97055.81;;;16.24;59.74
17209;BME280;8720;48.488;9.202;2022-10-23T01:42:38;97058.47;;;16.24;59.47
17209;BME280;8720;48.488;9.202;2022-10-23T01:45:16;97057.66;;;16.22;59.71
17209;BME280;8720;48.488;9.202;2022-10-23T01:47:46;97062.16;;;16.20;59.48
17209;BME280;8720;48.488;9.202;2022-10-23T01:50:18;97056.16;;;16.17;59.53
17209;BME280;8720;48.488;9.202;2022-10-23T01:52:48;97051.88;;;16.14;59.46
17209;BME280;8720;48.488;9.202;2022-10-23T01:55:17;97046.75;;;16.11;59.50
17209;BME280;8720;48.488;9.202;2022-10-23T01:57:46;97037.53;;;16.01;59.56
17209;BME280;8720;48.488;9.202;2022-10-23T02:03:00;97040.09;;;16.03;59.68
17209;BME280;8720;48.488;9.202;2022-10-23T02:05:33;97039.28;;;16.01;59.68
17209;BME280;8720;48.488;9.202;2022-10-23T02:08:03;97023.75;;;15.95;59.49
17209;BME280;8720;48.488;9.202;2022-10-23T02:10:40;97026.38;;;15.95;59.85
17209;BME280;8720;48.488;9.202;2022-10-23T02:13:16;97026.59;;;15.90;59.78
17209;BME280;8720;48.488;9.202;2022-10-23T02:15:49;97027.59;;;15.88;59.51
17209;BME280;8720;48.488;9.202;2022-10-23T02:18:34;97021.72;;;15.81;60.02
17209;BME280;8720;48.488;9.202;2022-10-23T02:21:10;97020.97;;;15.79;59.77
17209;BME280;8720;48.488;9.202;2022-10-23T02:23:46;97024.56;;;15.77;60.08
17209;BME280;8720;48.488;9.202;2022-10-23T02:26:21;97010.00;;;15.68;60.15
17209;BME280;8720;48.488;9.202;2022-10-23T02:28:56;97015.44;;;15.65;60.46
17209;BME280;8720;48.488;9.202;2022-10-23T02:31:24;97029.13;;;15.73;60.49
17209;BME280;8720;48.488;9.202;2022-10-23T02:33:54;97013.31;;;15.73;60.55
17209;BME280;8720;48.488;9.202;2022-10-23T02:36:21;97011.47;;;15.75;60.73
17209;BME280;8720;48.488;9.202;2022-10-23T02:38:49;97012.19;;;15.79;60.93
17209;BME280;8720;48.488;9.202;2022-10-23T02:41:34;96997.06;;;15.82;60.47
17209;BME280;8720;48.488;9.202;2022-10-23T02:44:27;96996.13;;;15.83;60.62
17209;BME280;8720;48.488;9.202;2022-10-23T02:47:15;96990.81;;;15.85;60.33
17209;BME280;8720;48.488;9.202;2022-10-23T02:50:05;96976.66;;;15.86;60.29
17209;BME280;8720;48.488;9.202;2022-10-23T02:52:50;96975.69;;;15.88;60.07
17209;BME280;8720;48.488;9.202;2022-10-23T02:55:33;96956.28;;;15.89;60.24
17209;BME280;8720;48.488;9.202;2022-10-23T02:58:14;96965.34;;;15.84;60.07
17209;BME280;8720;48.488;9.202;2022-10-23T03:00:49;96959.34;;;15.80;60.46
17209;BME280;8720;48.488;9.202;2022-10-23T03:03:23;96950.50;;;15.81;60.44
17209;BME280;8720;48.488;9.202;2022-10-23T03:05:55;96959.00;;;15.88;60.19
17209;BME280;8720;48.488;9.202;2022-10-23T03:08:23;96959.84;;;15.88;60.47
17209;BME280;8720;48.488;9.202;2022-10-23T03:10:51;96961.50;;;15.91;60.59
17209;BME280;8720;48.488;9.202;2022-10-23T03:13:20;96964.06;;;15.92;60.23
17209;BME280;8720;48.488;9.202;2022-10-23T03:15:48;96961.28;;;15.95;60.36
17209;BME280;8720;48.488;9.202;2022-10-23T03:18:15;96969.97;;;15.97;60.40
17209;BME280;8720;48.488;9.202;2022-10-23T03:20:48;96978.59;;;16.01;60.40
17209;BME280;8720;48.488;9.202;2022-10-23T03:23:17;96979.38;;;16.03;60.56
17209;BME280;8720;48.488;9.202;2022-10-23T03:25:44;96974.91;;;16.05;60.33
17209;BME280;8720;48.488;9.202;2022-10-23T03:28:26;96973.06;;;16.07;60.64
17209;BME280;8720;48.488;9.202;2022-10-23T03:30:53;96975.56;;;16.10;60.22
17209;BME280;8720;48.488;9.202;2022-10-23T03:33:20;96967.78;;;16.07;60.38
17209;BME280;8720;48.488;9.202;2022-10-23T03:35:48;96966.00;;;16.07;60.25
17209;BME280;8720;48.488;9.202;2022-10-23T03:38:18;96965.56;;;16.16;60.33
17209;BME280;8720;48.488;9.202;2022-10-23T03:40:45;96960.34;;;16.15;60.19
17209;BME280;8720;48.488;9.202;2022-10-23T03:43:13;96962.13;;;16.14;59.81
17209;BME280;8720;48.488;9.202;2022-10-23T03:45:40;96953.44;;;16.12;59.60
17209;BME280;8720;48.488;9.202;2022-10-23T03:48:08;96968.56;;;16.09;59.48
17209;BME280;8720;48.488;9.202;2022-10-23T03:50:35;96957.28;;;16.05;59.52
17209;BME280;8720;48.488;9.202;2022-10-23T03:53:04;96953.28;;;15.97;59.31
17209;BME280;8720;48.488;9.202;2022-10-23T03:55:34;96956.22;;;15.91;59.27
17209;BME280;8720;48.488;9.202;2022-10-23T03:58:02;96963.22;;;15.92;59.43
17209;BME280;8720;48.488;9.202;2022-10-23T04:00:29;96948.78;;;15.80;59.67
17209;BME280;8720;48.488;9.202;2022-10-23T04:03:00;96932.69;;;15.68;59.57
17209;BME280;8720;48.488;9.202;2022-10-23T04:05:27;96941.44;;;15.68;59.57
17209;BME280;8720;48.488;9.202;2022-10-23T04:07:57;96953.72;;;15.69;59.40
17209;BME280;8720;48.488;9.202;2022-10-23T04:10:24;96953.00;;;15.66;59.54
17209;BME280;8720;48.488;9.202;2022-10-23T04:12:53;96949.69;;;15.61;59.48
17209;BME280;8720;48.488;9.202;2022-10-23T04:15:20;96965.59;;;15.59;59.21
17209;BME280;8720;48.488;9.202;2022-10-23T04:17:47;96965.78;;;15.55;59.42
17209;BME280;8720;48.488;9.202;2022-10-23T04:20:15;96966.19;;;15.45;59.46
17209;BME280;8720;48.488;9.202;2022-10-23T04:22:42;96974.03;;;15.47;59.59
17209;BME280;8720;48.488;9.202;2022-10-23T04:25:10;96975.88;;;15.45;59.53
17209;BME280;8720;48.488;9.202;2022-10-23T04:27:37;96975.09;;;15.43;59.59
17209;BME280;8720;48.488;9.202;2022-10-23T04:30:08;96989.22;;;15.42;59.95
17209;BME280;8720;48.488;9.202;2022-10-23T04:32:37;96984.78;;;15.42;59.90
17209;BME280;8720;48.488;9.202;2022-10-23T04:35:06;96976.19;;;15.37;59.85
17209;BME280;8720;48.488;9.202;2022-10-23T04:37:33;96983.84;;;15.43;59.69
17209;BME280;8720;48.488;9.202;2022-10-23T04:40:01;96974.19;;;15.44;59.86
17209;BME280;8720;48.488;9.202;2022-10-23T04:42:28;96968.16;;;15.40;59.72
17209;BME280;8720;48.488;9.202;2022-10-23T04:44:57;96963.88;;;15.38;59.75
17209;BME280;8720;48.488;9.202;2022-10-23T04:47:26;96963.72;;;15.41;59.68
17209;BME280;8720;48.488;9.202;2022-10-23T04:49:56;96957.63;;;15.40;60.04
17209;BME280;8720;48.488;9.202;2022-10-23T04:52:42;96949.91;;;15.36;59.70
17209;BME280;8720;48.488;9.202;2022-10-23T04:55:48;96946.72;;;15.28;59.92
17209;BME280;8720;48.488;9.202;2022-10-23T04:58:23;96948.31;;;15.32;60.18
17209;BME280;8720;48.488;9.202;2022-10-23T05:00:52;96950.94;;;15.32;59.85
17209;BME280;8720;48.488;9.202;2022-10-23T05:03:25;96949.25;;;15.31;59.86
17209;BME280;8720;48.488;9.202;2022-10-23T05:05:54;96951.09;;;15.29;59.87
17209;BME280;8720;48.488;9.202;2022-10-23T05:08:40;96945.28;;;15.21;60.24
17209;BME280;8720;48.488;9.202;2022-10-23T05:11:43;96954.00;;;15.23;59.83
17209;BME280;8720;48.488;9.202;2022-10-23T05:14:10;96945.41;;;15.18;59.96
17209;BME280;8720;48.488;9.202;2022-10-23T05:16:45;96949.84;;;15.17;59.93
17209;BME280;8720;48.488;9.202;2022-10-23T05:19:21;96959.38;;;15.20;59.85
17209;BME280;8720;48.488;9.202;2022-10-23T05:21:51;96955.94;;;15.18;60.06
17209;BME280;8720;48.488;9.202;2022-10-23T05:24:25;96951.94;;;15.09;59.90
17209;BME280;8720;48.488;9.202;2022-10-23T05:26:59;96946.53;;;15.12;60.38
17209;BME280;8720;48.488;9.202;2022-10-23T05:29:29;96950.81;;;15.15;59.85
17209;BME280;8720;48.488;9.202;2022-10-23T05:32:02;96959.78;;;15.11;60.01
17209;BME280;8720;48.488;9.202;2022-10-23T05:34:35;96944.16;;;15.06;60.20
17209;BME280;8720;48.488;9.202;2022-10-23T05:37:07;96944.84;;;15.11;60.33
17209;BME280;8720;48.488;9.202;2022-10-23T05:39:37;96937.13;;;15.07;60.32
17209;BME280;8720;48.488;9.202;2022-10-23T05:42:09;96949.16;;;15.12;60.49
17209;BME280;8720;48.488;9.202;2022-10-23T05:44:37;96942.13;;;15.13;60.14
17209;BME280;8720;48.488;9.202;2022-10-23T05:47:17;96952.66;;;15.13;59.94
17209;BME280;8720;48.488;9.202;2022-10-23T05:49:45;96946.47;;;15.14;60.09
17209;BME280;8720;48.488;9.202;2022-10-23T05:52:46;96951.72;;;15.14;60.42
17209;BME280;8720;48.488;9.202;2022-10-23T05:55:33;96936.00;;;15.12;60.23
17209;BME280;8720;48.488;9.202;2022-10-23T05:58:23;96929.75;;;15.15;60.08
17209;BME280;8720;48.488;9.202;2022-10-23T06:01:04;96930.59;;;15.56;59.69
17209;BME280;8720;48.488;9.202;2022-10-23T06:03:51;96918.75;;;15.45;59.79
17209;BME280;8720;48.488;9.202;2022-10-23T06:06:23;96921.63;;;15.39;59.83
17209;BME280;8720;48.488;9.202;2022-10-23T06:08:50;96926.97;;;15.38;60.00
17209;BME280;8720;48.488;9.202;2022-10-23T06:11:20;96919.97;;;15.37;59.98
17209;BME280;8720;48.488;9.202;2022-10-23T06:13:57;96921.81;;;15.35;60.15
17209;BME280;8720;48.488;9.202;2022-10-23T06:16:25;96913.00;;;15.36;59.93
17209;BME280;8720;48.488;9.202;2022-10-23T06:18:53;96909.41;;;15.37;60.01
17209;BME280;8720;48.488;9.202;2022-10-23T06:21:24;96916.41;;;15.38;60.42
17209;BME280;8720;48.488;9.202;2022-10-23T06:23:53;96904.94;;;15.39;60.20
17209;BME280;8720;48.488;9.202;2022-10-23T06:26:24;96911.94;;;15.40;60.14
17209;BME280;8720;48.488;9.202;2022-10-23T06:28:56;96914.44;;;15.43;60.04
17209;BME280;8720;48.488;9.202;2022-10-23T06:31:25;96918.75;;;15.45;60.15
17209;BME280;8720;48.488;9.202;2022-10-23T06:33:56;96914.19;;;15.49;60.36
17209;BME280;8720;48.488;9.202;2022-10-23T06:36:26;96916.53;;;15.55;60.24
17209;BME280;8720;48.488;9.202;2022-10-23T06:39:00;96916.38;;;15.58;60.19
17209;BME280;8720;48.488;9.202;2022-10-23T06:41:47;96918.03;;;15.61;60.03
17209;BME280;8720;48.488;9.202;2022-10-23T06:44:34;96921.47;;;15.63;60.11
17209;BME280;8720;48.488;9.202;2022-10-23T06:47:08;96916.00;;;15.67;60.01
17209;BME280;8720;48.488;9.202;2022-10-23T06:49:57;96913.34;;;15.67;59.93
17209;BME280;8720;48.488;9.202;2022-10-23T06:52:27;96924.47;;;15.74;59.89
17209;BME280;8720;48.488;9.202;2022-10-23T06:54:56;96924.34;;;15.77;59.89
17209;BME280;8720;48.488;9.202;2022-10-23T06:57:29;96919.69;;;15.82;60.03
17209;BME280;8720;48.488;9.202;2022-10-23T06:59:58;96922.91;;;15.88;59.75
17209;BME280;8720;48.488;9.202;2022-10-23T07:02:26;96934.09;;;15.93;60.14
17209;BME280;8720;48.488;9.202;2022-10-23T07:04:53;96940.84;;;16.00;59.76
17209;BME280;8720;48.488;9.202;2022-10-23T07:07:21;96929.97;;;16.06;59.93
17209;BME280;8720;48.488;9.202;2022-10-23T07:09:50;96933.09;;;16.14;59.92
17209;BME280;8720;48.488;9.202;2022-10-23T07:12:27;96935.31;;;16.23;59.77
17209;BME280;8720;48.488;9.202;2022-10-23T07:15:15;96940.94;;;16.34;59.98
17209;BME280;8720;48.488;9.202;2022-10-23T07:17:43;96944.84;;;16.45;60.10
17209;BME280;8720;48.488;9.202;2022-10-23T07:20:11;96941.72;;;16.55;59.75
17209;BME280;8720;48.488;9.202;2022-10-23T07:22:38;96943.84;;;16.66;59.89
17209;BME280;8720;48.488;9.202;2022-10-23T07:25:11;96930.94;;;16.77;59.92
17209;BME280;8720;48.488;9.202;2022-10-23T07:27:38;96944.25;;;16.92;60.10
17209;BME280;8720;48.488;9.202;2022-10-23T07:30:09;96938.38;;;17.04;59.65
17209;BME280;8720;48.488;9.202;2022-10-23T07:32:45;96937.50;;;17.21;60.01
17209;BME280;8720;48.488;9.202;2022-10-23T07:35:16;96940.19;;;17.37;59.88
17209;BME280;8720;48.488;9.202;2022-10-23T07:37:53;96927.16;;;17.51;59.67
17209;BME280;8720;48.488;9.202;2022-10-23T07:40:22;96930.00;;;17.63;59.96
17209;BME280;8720;48.488;9.202;2022-10-23T07:42:53;96923.97;;;17.77;59.92
17209;BME280;8720;48.488;9.202;2022-10-23T07:45:20;96924.22;;;17.88;59.57
17209;BME280;8720;48.488;9.202;2022-10-23T07:47:50;96928.00;;;17.99;59.71
17209;BME280;8720;48.488;9.202;2022-10-23T07:50:19;96903.16;;;18.02;59.29
17209;BME280;8720;48.488;9.202;2022-10-23T07:52:46;96915.22;;;18.23;59.34
17209;BME280;8720;48.488;9.202;2022-10-23T07:55:16;96909.38;;;18.32;59.21
17209;BME280;8720;48.488;9.202;2022-10-23T07:57:49;96915.66;;;18.47;59.03
17209;BME280;8720;48.488;9.202;2022-10-23T08:00:39;96899.56;;;18.50;58.83
17209;BME280;8720;48.488;9.202;2022-10-23T08:03:15;96902.31;;;18.64;58.63
17209;BME280;8720;48.488;9.202;2022-10-23T08:05:42;96900.84;;;18.74;58.31
17209;BME280;8720;48.488;9.202;2022-10-23T08:08:10;96896.69;;;18.84;58.19
17209;BME280;8720;48.488;9.202;2022-10-23T08:10:39;96892.56;;;18.94;58.46
17209;BME280;8720;48.488;9.202;2022-10-23T08:13:12;96881.41;;;19.03;57.89
17209;BME280;8720;48.488;9.202;2022-10-23T08:15:52;96890.50;;;19.13;57.92
17209;BME280;8720;48.488;9.202;2022-10-23T08:18:50;96873.31;;;19.20;57.91
17209;BME280;8720;48.488;9.202;2022-10-23T08:21:18;96872.94;;;19.26;57.66
17209;BME280;8720;48.488;9.202;2022-10-23T08:23:47;96878.81;;;19.31;57.50
17209;BME280;8720;48.488;9.202;2022-10-23T08:26:15;96881.47;;;19.31;57.30
17209;BME280;8720;48.488;9.202;2022-10-23T08:28:44;96875.16;;;19.34;57.39
17209;BME280;8720;48.488;9.202;2022-10-23T08:31:15;96880.25;;;19.37;56.92
17209;BME280;8720;48.488;9.202;2022-10-23T08:33:57;96881.88;;;19.39;57.18
17209;BME280;8720;48.488;9.202;2022-10-23T08:36:27;96884.16;;;19.45;56.80
17209;BME280;8720;48.488;9.202;2022-10-23T08:38:56;96883.78;;;19.51;56.82
17209;BME280;8720;48.488;9.202;2022-10-23T08:41:29;96874.28;;;19.61;56.97
17209;BME280;8720;48.488;9.202;2022-10-23T08:44:23;96871.84;;;19.72;57.43
17209;BME280;8720;48.488;9.202;2022-10-23T08:47:02;96872.28;;;19.79;57.11
17209;BME280;8720;48.488;9.202;2022-10-23T08:49:56;96873.03;;;19.95;56.93
17209;BME280;8720;48.488;9.202;2022-10-23T08:52:37;96875.75;;;20.08;56.96
17209;BME280;8720;48.488;9.202;2022-10-23T08:55:16;96866.19;;;20.19;57.06
17209;BME280;8720;48.488;9.202;2022-10-23T08:57:54;96862.75;;;20.31;56.33
17209;BME280;8720;48.488;9.202;2022-10-23T09:00:25;96869.19;;;20.41;56.52
17209;BME280;8720;48.488;9.202;2022-10-23T09:02:54;96875.78;;;20.48;55.80
17209;BME280;8720;48.488;9.202;2022-10-23T09:05:30;96876.44;;;20.52;55.93
17209;BME280;8720;48.488;9.202;2022-10-23T09:08:17;96877.41;;;20.51;55.97
17209;BME280;8720;48.488;9.202;2022-10-23T09:11:05;96876.44;;;20.52;56.04
17209;BME280;8720;48.488;9.202;2022-10-23T09:13:54;96879.94;;;20.52;56.08
17209;BME280;8720;48.488;9.202;2022-10-23T09:16:37;96872.63;;;20.56;56.07
17209;BME280;8720;48.488;9.202;2022-10-23T09:19:14;96862.75;;;20.58;56.04
17209;BME280;8720;48.488;9.202;2022-10-23T09:21:43;96852.50;;;20.52;55.99
17209;BME280;8720;48.488;9.202;2022-10-23T09:24:15;96859.78;;;20.62;56.28
17209;BME280;8720;48.488;9.202;2022-10-23T09:26:44;96859.56;;;20.65;56.01
17209;BME280;8720;48.488;9.202;2022-10-23T09:29:22;96864.59;;;20.70;55.83
17209;BME280;8720;48.488;9.202;2022-10-23T09:31:53;96851.19;;;20.71;55.60
17209;BME280;8720;48.488;9.202;2022-10-23T09:34:23;96843.44;;;20.81;55.47
17209;BME280;8720;48.488;9.202;2022-10-23T09:36:55;96841.34;;;20.86;55.14
17209;BME280;8720;48.488;9.202;2022-10-23T09:39:28;96829.97;;;20.84;55.18
17209;BME280;8720;48.488;9.202;2022-10-23T09:41:56;96810.16;;;20.75;55.46
17209;BME280;8720;48.488;9.202;2022-10-23T09:44:26;96831.13;;;20.93;54.99
17209;BME280;8720;48.488;9.202;2022-10-23T09:47:07;96834.25;;;20.99;55.54
17209;BME280;8720;48.488;9.202;2022-10-23T09:49:39;96824.91;;;21.06;55.10
17209;BME280;8720;48.488;9.202;2022-10-23T09:52:23;96819.81;;;21.16;55.42
17209;BME280;8720;48.488;9.202;2022-10-23T09:54:55;96818.75;;;21.18;55.16
17209;BME280;8720;48.488;9.202;2022-10-23T09:57:29;96818.03;;;21.29;55.08
17209;BME280;8720;48.488;9.202;2022-10-23T10:00:02;96820.22;;;21.35;55.04
17209;BME280;8720;48.488;9.202;2022-10-23T10:02:41;96826.97;;;21.40;55.00
17209;BME280;8720;48.488;9.202;2022-10-23T10:05:35;96826.97;;;21.40;54.91
17209;BME280;8720;48.488;9.202;2022-10-23T10:08:19;96829.09;;;21.48;54.73
17209;BME280;8720;48.488;9.202;2022-10-23T10:10:54;96843.34;;;21.59;54.44
17209;BME280;8720;48.488;9.202;2022-10-23T10:16:43;96837.78;;;21.75;54.24
17209;BME280;8720;48.488;9.202;2022-10-23T10:19:28;96840.88;;;21.82;53.89
17209;BME280;8720;48.488;9.202;2022-10-23T10:22:10;96843.97;;;21.88;54.36
17209;BME280;8720;48.488;9.202;2022-10-23T10:24:48;96847.31;;;22.03;54.30
17209;BME280;8720;48.488;9.202;2022-10-23T10:27:39;96835.78;;;22.15;53.99
17209;BME280;8720;48.488;9.202;2022-10-23T10:30:15;96828.47;;;22.29;53.77
17209;BME280;8720;48.488;9.202;2022-10-23T10:32:50;96823.09;;;22.42;53.33
17209;BME280;8720;48.488;9.202;2022-10-23T10:35:36;96826.06;;;22.50;52.82
17209;BME280;8720;48.488;9.202;2022-10-23T10:38:34;96823.88;;;22.55;53.13
17209;BME280;8720;48.488;9.202;2022-10-23T10:41:45;96814.72;;;22.59;53.54
17209;BME280;8720;48.488;9.202;2022-10-23T10:44:49;96812.56;;;22.64;53.01
17209;BME280;8720;48.488;9.202;2022-10-23T10:47:25;96803.34;;;22.68;52.29
17209;BME280;8720;48.488;9.202;2022-10-23T10:50:14;96810.19;;;22.83;52.20
17209;BME280;8720;48.488;9.202;2022-10-23T10:53:19;96818.13;;;22.96;51.96
17209;BME280;8720;48.488;9.202;2022-10-23T10:55:53;96817.09;;;23.09;51.65
17209;BME280;8720;48.488;9.202;2022-10-23T10:58:30;96805.56;;;23.20;51.30
17209;BME280;8720;48.488;9.202;2022-10-23T11:01:12;96807.19;;;23.33;51.36
17209;BME280;8720;48.488;9.202;2022-10-23T11:03:48;96793.00;;;23.44;50.89
17209;BME280;8720;48.488;9.202;2022-10-23T11:06:21;96792.28;;;23.53;50.85
17209;BME280;8720;48.488;9.202;2022-10-23T11:08:51;96791.56;;;23.62;50.87
17209;BME280;8720;48.488;9.202;2022-10-23T11:11:25;96789.63;;;23.75;50.67
17209;BME280;8720;48.488;9.202;2022-10-23T11:13:55;96777.22;;;23.85;50.57
17209;BME280;8720;48.488;9.202;2022-10-23T11:16:27;96781.69;;;23.96;49.88
17209;BME280;8720;48.488;9.202;2022-10-23T11:19:05;96774.78;;;24.04;49.84
17209;BME280;8720;48.488;9.202;2022-10-23T11:21:39;96774.75;;;24.15;49.44
17209;BME280;8720;48.488;9.202;2022-10-23T11:24:58;96767.69;;;24.25;50.21
17209;BME280;8720;48.488;9.202;2022-10-23T11:27:47;96758.75;;;24.36;49.97
17209;BME280;8720;48.488;9.202;2022-10-23T11:30:24;96758.03;;;24.45;49.61
17209;BME280;8720;48.488;9.202;2022-10-23T11:33:35;96753.00;;;24.52;50.09
17209;BME280;8720;48.488;9.202;2022-10-23T11:36:15;96745.91;;;24.62;49.29
17209;BME280;8720;48.488;9.202;2022-10-23T11:38:47;96733.34;;;24.73;48.97
17209;BME280;8720;48.488;9.202;2022-10-23T11:41:21;96731.59;;;24.83;48.42
17209;BME280;8720;48.488;9.202;2022-10-23T11:43:52;96728.13;;;24.92;48.39
17209;BME280;8720;48.488;9.202;2022-10-23T11:46:35;96716.88;;;24.98;48.51
17209;BME280;8720;48.488;9.202;2022-10-23T11:49:04;96716.94;;;25.08;48.16
17209;BME280;8720;48.488;9.202;2022-10-23T11:51:45;96722.06;;;25.20;48.42
17209;BME280;8720;48.488;9.202;2022-10-23T11:54:23;96721.53;;;25.27;47.88
17209;BME280;8720;48.488;9.202;2022-10-23T11:57:10;96710.03;;;25.36;48.27
17209;BME280;8720;48.488;9.202;2022-10-23T11:59:54;96698.94;;;25.40;47.80
17209;BME280;8720;48.488;9.202;2022-10-23T12:02:34;96700.22;;;25.46;48.00
17209;BME280;8720;48.488;9.202;2022-10-23T12:05:06;96689.97;;;25.51;47.11
17209;BME280;8720;48.488;9.202;2022-10-23T12:07:37;96704.53;;;25.67;47.00
17209;BME280;8720;48.488;9.202;2022-10-23T12:10:22;96698.78;;;25.72;46.73
17209;BME280;8720;48.488;9.202;2022-10-23T12:12:59;96703.31;;;25.81;46.76
17209;BME280;8720;48.488;9.202;2022-10-23T12:15:27;96700.06;;;25.87;46.28
17209;BME280;8720;48.488;9.202;2022-10-23T12:18:07;96707.81;;;25.90;46.46
17209;BME280;8720;48.488;9.202;2022-10-23T12:20:48;96685.66;;;25.88;46.16
17209;BME280;8720;48.488;9.202;2022-10-23T12:26:47;96682.06;;;26.08;46.42
17209;BME280;8720;48.488;9.202;2022-10-23T12:29:34;96683.91;;;26.17;46.00
17209;BME280;8720;48.488;9.202;2022-10-23T12:32:26;96675.31;;;26.23;46.05
17209;BME280;8720;48.488;9.202;2022-10-23T12:35:25;96675.03;;;26.26;46.45
17209;BME280;8720;48.488;9.202;2022-10-23T12:38:14;96665.00;;;26.28;45.91
17209;BME280;8720;48.488;9.202;2022-10-23T12:40:44;96662.44;;;26.36;45.68
17209;BME280;8720;48.488;9.202;2022-10-23T12:43:27;96653.84;;;26.42;45.71
17209;BME280;8720;48.488;9.202;2022-10-23T12:46:02;96640.84;;;26.47;45.43
17209;BME280;8720;48.488;9.202;2022-10-23T12:48:33;96633.91;;;26.54;45.26
17209;BME280;8720;48.488;9.202;2022-10-23T12:51:00;96629.25;;;26.56;45.33
17209;BME280;8720;48.488;9.202;2022-10-23T12:53:27;96624.28;;;26.61;45.04
17209;BME280;8720;48.488;9.202;2022-10-23T12:55:58;96624.88;;;26.65;44.71
17209;BME280;8720;48.488;9.202;2022-10-23T12:58:28;96618.50;;;26.66;44.27
17209;BME280;8720;48.488;9.202;2022-10-23T13:01:05;96629.94;;;26.68;44.73
17209;BME280;8720;48.488;9.202;2022-10-23T13:03:34;96630.66;;;26.70;44.90
17209;BME280;8720;48.488;9.202;2022-10-23T13:06:02;96632.06;;;26.74;44.80
17209;BME280;8720;48.488;9.202;2022-10-23T13:08:35;96615.97;;;26.74;44.32
17209;BME280;8720;48.488;9.202;2022-10-23T13:11:24;96615.97;;;26.74;44.60
17209;BME280;8720;48.488;9.202;2022-10-23T13:13:55;96620.63;;;26.72;45.13
17209;BME280;8720;48.488;9.202;2022-10-23T13:16:25;96610.88;;;26.71;44.60
17209;BME280;8720;48.488;9.202;2022-10-23T13:18:52;96606.63;;;26.68;44.54
17209;BME280;8720;48.488;9.202;2022-10-23T13:21:23;96601.41;;;26.67;44.85
17209;BME280;8720;48.488;9.202;2022-10-23T13:23:51;96601.53;;;26.65;44.66
17209;BME280;8720;48.488;9.202;2022-10-23T13:26:31;96603.25;;;26.66;44.55
17209;BME280;8720;48.488;9.202;2022-10-23T13:29:00;96608.19;;;26.71;44.86
17209;BME280;8720;48.488;9.202;2022-10-23T13:31:32;96614.69;;;26.78;44.59
17209;BME280;8720;48.488;9.202;2022-10-23T13:34:23;96596.44;;;26.81;45.04
17209;BME280;8720;48.488;9.202;2022-10-23T13:37:00;96599.63;;;26.94;44.88
17209;BME280;8720;48.488;9.202;2022-10-23T13:39:30;96599.91;;;27.01;44.49
17209;BME280;8720;48.488;9.202;2022-10-23T13:42:10;96600.59;;;27.03;44.56
17209;BME280;8720;48.488;9.202;2022-10-23T13:44:39;96590.03;;;27.02;44.39
17209;BME280;8720;48.488;9.202;2022-10-23T13:47:12;96591.84;;;27.01;45.20
17209;BME280;8720;48.488;9.202;2022-10-23T13:49:40;96599.75;;;27.03;45.26
17209;BME280;8720;48.488;9.202;2022-10-23T13:52:10;96607.66;;;27.04;45.55
17209;BME280;8720;48.488;9.202;2022-10-23T13:54:37;96611.03;;;27.06;45.73
17209;BME280;8720;48.488;9.202;2022-10-23T13:57:11;96602.00;;;27.07;45.07
17209;BME280;8720;48.488;9.202;2022-10-23T13:59:39;96599.16;;;27.09;45.41